Latest Weather Observations for Marble Bar

IDW60801

Issued at 4:12 pm WST Sunday 1 March 2015 (issued every 30 minutes, with the page automatically refreshed every 10 minutes)

About weather observations | Map of weather stations | Latest weather observations for WA | Other Formats
Station Details ID: 004106 Name: MARBLE BAR Lat: -21.18 Lon: 119.75 Height: 182.3 m
Data from the previous 72 hours. | See also: Recent months at Marble Bar
Date/Time
WST
Temp
°C
App
Temp
°C
Dew
Point
Rel
Hum
%
Delta-T
°C
Wind Press
QNH
hPa
Press
MSL
hPa
Rain
since 9 am
mm
Dir
 
Spd
km/h
Gust
km/h
Spd
kts
Gust
kts
01/04:00pm 36.8 38.2 17.9 33 12.4 NW 7 13 4 7 1004.8 1003.4 0.0
01/03:30pm 37.3 38.3 17.8 31 12.8 NW 9 19 5 10 1004.9 1003.5 0.0
01/03:00pm 38.5 39.8 18.4 31 13.4 NNW 9 24 5 13 1005.2 1003.8 0.0
01/02:30pm 38.2 37.8 18.1 30 13.3 N 17 24 9 13 1005.4 1004.0 0.0
01/02:00pm 37.8 38.1 18.7 32 12.7 N 15 28 8 15 1005.6 1004.2 0.0
01/01:30pm 37.3 38.0 18.8 33 12.3 NNW 13 26 7 14 1006.4 1004.9 0.0
01/01:00pm 38.3 39.9 19.2 32 12.8 NNW 9 19 5 10 1006.8 1005.3 0.0
01/12:30pm 36.2 37.8 19.2 37 11.3 NE 9 17 5 9 1007.4 1006.0 0.0
01/12:00pm 34.9 36.4 19.7 41 10.2 NE 11 17 6 9 1007.9 1006.5 0.0
01/11:30am 33.9 36.1 20.3 45 9.2 ENE 9 20 5 11 1008.5 1007.1 0.0
01/11:00am 34.6 36.5 21.3 46 9.1 ESE 13 20 7 11 1009.0 1007.6 0.0
01/10:30am 33.3 34.7 21.1 48 8.3 ESE 15 24 8 13 1009.1 1007.7 0.0
01/10:00am 32.7 34.4 20.2 47 8.4 ESE 11 15 6 8 1009.9 1008.5 0.0
01/09:30am 32.1 34.9 21.6 53 7.1 ESE 9 15 5 8 1010.2 1008.8 0.0
01/09:00am 31.1 33.4 22.1 58 6.2 ESE 13 19 7 10 1010.3 1008.9 0.2
01/08:30am 30.6 33.5 22.5 62 5.6 SE 11 20 6 11 1010.1 1008.7 0.2
01/08:00am 29.6 33.2 23.1 68 4.5 SSE 9 15 5 8 1010.1 1008.7 0.2
01/07:30am 28.8 32.6 22.8 70 4.1 S 7 13 4 7 1009.8 1008.3 0.2
01/07:00am 28.2 32.0 22.7 72 3.8 SSW 7 11 4 6 1009.4 1007.9 0.2
01/06:30am 28.0 31.3 22.5 72 3.7 SSW 9 13 5 7 1008.9 1007.4 0.2
01/06:00am 27.4 32.1 22.6 75 3.3 SSW 2 4 1 2 1008.6 1007.1 0.2
01/05:30am 27.5 32.1 22.4 73 3.5 NW 2 4 1 2 1008.5 1007.0 0.2
01/05:00am 27.5 31.1 22.4 73 3.5 NW 7 11 4 6 1008.4 1006.9 0.2
01/04:30am 27.7 31.1 22.0 71 3.9 NW 7 11 4 6 1008.4 1006.9 0.2
01/04:00am 27.9 30.9 21.9 70 4.1 WNW 9 13 5 7 1008.2 1006.7 0.2
01/03:30am 28.1 31.7 22.1 70 4.1 NW 6 9 3 5 1008.3 1006.8 0.2
01/03:00am 28.2 31.9 22.2 70 4.1 WNW 6 9 3 5 1007.7 1006.1 0.2
01/02:30am 28.2 31.9 22.2 70 4.1 WNW 6 7 3 4 1006.9 1005.3 0.2
01/02:00am 28.5 32.2 22.5 70 4.1 WNW 7 13 4 7 1006.9 1005.3 0.2
01/01:30am 28.6 31.9 22.6 70 4.1 W 9 15 5 8 1007.1 1005.5 0.2
01/01:00am 28.7 32.2 22.9 71 4.0 W 9 13 5 7 1007.3 1005.7 0.2
01/12:30am 28.6 32.2 23.1 72 3.8 WNW 9 17 5 9 1007.6 1006.0 0.2
01/12:00am 28.2 32.5 22.7 72 3.8 NNW 4 6 2 3 1008.0 1006.5 0.2
 
Date/Time
WST
Temp
°C
App
Temp
°C
Dew
Point
Rel
Hum
%
Delta-T
°C
Wind Press
QNH
hPa
Press
MSL
hPa
Rain
since 9 am
mm
Dir
 
Spd
km/h
Gust
km/h
Spd
kts
Gust
kts
28/11:30pm 27.9 32.8 22.4 72 3.7 CALM 0 0 0 0 1008.6 1007.1 0.2
28/11:00pm 27.8 31.9 22.3 72 3.7 WNW 4 6 2 3 1008.9 1007.4 0.2
28/10:30pm 28.0 31.1 22.2 70 3.9 NNW 9 11 5 6 1008.8 1007.3 0.2
28/10:00pm 28.5 31.5 22.0 68 4.4 NNE 9 13 5 7 1009.1 1007.6 0.2
28/09:30pm 28.7 30.8 21.7 66 4.7 NE 13 24 7 13 1009.0 1007.5 0.2
28/09:00pm 29.6 30.2 21.3 61 5.6 NE 20 33 11 18 1008.8 1007.3 0.2
28/08:30pm 30.5 32.1 22.1 61 5.7 N 17 26 9 14 1008.1 1006.6 0.2
28/08:00pm 29.9 30.6 22.3 63 5.2 N 22 28 12 15 1007.8 1006.2 0.2
28/07:30pm 30.8 32.5 22.4 61 5.8 NW 17 28 9 15 1006.9 1005.3 0.2
28/07:00pm 30.9 32.1 22.2 59 6.0 NW 19 28 10 15 1006.9 1005.3 0.2
28/06:30pm 31.0 31.3 22.3 60 6.0 NNW 24 37 13 20 1005.9 1004.4 0.2
28/06:00pm 31.4 32.0 23.5 63 5.5 NNW 26 35 14 19 1005.0 1003.5 0.2
28/05:30pm 32.8 33.1 22.3 54 7.2 N 24 33 13 18 1004.5 1003.0 0.2
28/05:19pm 33.4 33.4 23.1 54 7.2 NNE 28 39 15 21 1004.4 1002.9 0.0
28/05:00pm 39.4 40.3 17.5 27 14.4 NNW 9 24 5 13 1003.4 1001.9 0.0
28/04:30pm 39.3 39.1 16.8 26 14.7 NNW 13 22 7 12 1003.7 1002.2 0.0
28/04:00pm 39.4 40.0 16.9 26 14.7 NNE 9 17 5 9 1004.2 1002.7 0.0
28/03:30pm 38.8 39.7 17.5 28 14.0 NNE 9 19 5 10 1004.4 1002.9 0.0
28/03:00pm 38.7 39.2 17.5 29 13.9 N 11 32 6 17 1004.8 1003.3 0.0
28/02:30pm 38.7 39.2 17.5 29 13.9 N 11 35 6 19 1005.1 1003.6 0.0
28/02:00pm 38.8 38.9 17.5 28 14.0 N 13 22 7 12 1005.5 1004.0 0.0
28/01:30pm 39.6 40.6 17.7 28 14.4 N 9 19 5 10 1005.7 1004.2 0.0
28/01:00pm 38.6 38.9 17.9 29 13.7 N 13 24 7 13 1006.5 1004.9 0.0
28/12:30pm 37.8 39.0 18.3 32 12.9 N 9 19 5 10 1007.1 1005.5 0.0
28/12:00pm 38.4 39.6 18.3 31 13.3 NNW 9 22 5 12 1007.6 1006.0 0.0
28/11:30am 37.0 37.9 18.5 33 12.2 NW 11 17 6 9 1008.0 1006.5 0.0
28/11:00am 36.5 38.0 19.0 35 11.7 W 9 19 5 10 1008.5 1007.0 0.0
28/10:30am 35.5 37.8 19.4 38 10.7 W 6 17 3 9 1008.9 1007.4 0.0
28/10:00am 34.8 37.6 20.4 43 9.7 N 6 15 3 8 1009.2 1007.7 0.0
28/09:30am 33.4 36.2 20.5 46 8.7 NNW 6 13 3 7 1009.4 1007.9 0.0
28/09:00am 33.2 36.5 21.4 50 8.0 ESE 6 9 3 5 1009.4 1007.9 0.0
28/08:30am 32.1 35.8 22.2 56 6.8 NW 6 7 3 4 1009.3 1007.8 0.0
28/08:00am 30.7 34.7 22.0 59 5.9 WSW 4 6 2 3 1009.2 1007.7 0.0
28/07:30am 29.9 34.4 22.9 66 4.8 SSW 4 7 2 4 1008.9 1007.4 0.0
28/07:00am 28.8 33.4 22.5 68 4.3 ESE 2 4 1 2 1008.7 1007.2 0.0
28/06:30am 27.7 33.1 23.3 77 3.0 CALM 0 2 0 1 1008.6 1007.1 0.0
28/06:00am 27.1 32.2 22.7 77 3.0 CALM 0 0 0 0 1008.5 1007.0 0.0
28/05:30am 27.2 32.1 22.4 75 3.3 CALM 0 4 0 2 1008.2 1006.7 0.0
28/05:00am 27.4 32.1 21.9 72 3.7 CALM 0 0 0 0 1007.9 1006.3 0.0
28/04:30am 27.8 32.6 22.1 71 3.9 CALM 0 0 0 0 1007.7 1006.1 0.0
28/04:00am 27.8 32.3 21.6 69 4.2 CALM 0 2 0 1 1007.7 1006.1 0.0
28/03:30am 28.1 31.8 21.4 67 4.5 N 4 4 2 2 1007.6 1006.0 0.0
28/03:00am 28.6 31.7 21.1 64 5.0 NNE 6 7 3 4 1007.6 1006.0 0.0
28/02:30am 28.8 31.9 21.1 63 5.2 NNE 6 7 3 4 1007.8 1006.2 0.0
28/02:00am 29.0 32.3 20.7 61 5.5 N 4 6 2 3 1007.7 1006.1 0.0
28/01:30am 29.1 32.2 20.3 59 5.8 NW 4 6 2 3 1007.6 1006.0 0.0
28/01:00am 29.4 32.9 20.3 58 6.1 NW 2 6 1 3 1007.8 1006.2 0.0
28/12:30am 29.7 32.1 20.0 56 6.4 NW 7 11 4 6 1008.1 1006.6 0.0
28/12:00am 29.9 31.9 19.9 55 6.6 WNW 9 13 5 7 1008.2 1006.7 0.0
 
Date/Time
WST
Temp
°C
App
Temp
°C
Dew
Point
Rel
Hum
%
Delta-T
°C
Wind Press
QNH
hPa
Press
MSL
hPa
Rain
since 9 am
mm
Dir
 
Spd
km/h
Gust
km/h
Spd
kts
Gust
kts
27/11:30pm 30.0 31.9 19.7 54 6.8 NW 9 15 5 8 1008.6 1007.1 0.0
27/11:00pm 29.9 33.4 22.1 63 5.3 NNW 7 9 4 5 1008.9 1007.4 0.0
27/10:30pm 29.9 33.2 22.6 65 5.0 NW 9 13 5 7 1009.0 1007.5 0.0
27/10:00pm 30.1 32.9 23.0 65 4.9 NW 13 20 7 11 1008.8 1007.3 0.0
27/09:30pm 30.5 33.0 23.2 65 5.0 NW 15 20 8 11 1008.4 1006.9 0.0
27/09:00pm 31.5 33.2 23.1 61 5.8 NNW 19 26 10 14 1007.7 1006.1 0.0
27/08:30pm 32.2 33.5 22.6 57 6.6 NNW 20 32 11 17 1007.2 1005.6 0.0
27/08:00pm 33.0 34.7 22.4 53 7.3 NNW 17 26 9 14 1006.8 1005.2 0.0
27/07:30pm 34.0 35.0 21.8 49 8.4 NNW 19 28 10 15 1006.0 1004.5 0.0
27/07:00pm 35.5 36.6 18.1 35 11.4 ENE 9 13 5 7 1005.3 1003.8 0.0
27/06:30pm 35.8 36.9 17.9 34 11.7 ENE 9 17 5 9 1004.6 1003.1 0.0
27/06:00pm 36.4 37.1 18.0 33 12.1 ENE 11 15 6 8 1004.4 1002.9 0.0
27/05:30pm 37.0 36.8 17.6 32 12.7 E 15 19 8 10 1003.9 1002.4 0.0
27/05:00pm 37.0 37.9 17.6 32 12.7 NE 9 24 5 13 1003.8 1002.3 0.0
27/04:30pm 37.7 37.7 17.1 29 13.4 E 13 22 7 12 1004.0 1002.5 0.0
27/04:00pm 37.7 37.9 17.7 31 13.2 ENE 13 24 7 13 1003.9 1002.4 0.0
27/03:30pm 37.4 37.1 17.4 30 13.1 ENE 15 28 8 15 1004.1 1002.6 0.0
27/03:00pm 37.7 36.8 17.7 31 13.2 ENE 19 30 10 16 1004.6 1003.1 0.0
27/02:30pm 37.1 37.9 18.1 32 12.5 NNE 11 20 6 11 1005.2 1003.7 0.0
27/02:00pm 37.3 36.6 18.3 32 12.6 ENE 19 35 10 19 1005.6 1004.1 0.0
27/01:30pm 37.5 36.7 17.0 30 13.3 NE 17 26 9 14 1006.0 1004.5 0.0
27/01:00pm 37.9 37.2 17.3 29 13.5 ENE 17 28 9 15 1006.4 1004.8 0.0
27/12:30pm 38.3 38.3 17.1 28 13.8 NE 13 28 7 15 1006.5 1004.9 0.0
27/12:00pm 36.3 37.4 17.9 33 12.1 ENE 9 20 5 11 1007.0 1005.4 0.0
27/11:30am 34.6 36.0 17.8 37 10.9 ESE 7 24 4 13 1007.3 1005.7 0.0
27/11:00am 34.3 36.5 19.5 41 9.9 NW 7 13 4 7 1007.8 1006.2 0.0
27/10:30am 32.9 35.2 19.4 45 8.9 NNE 6 9 3 5 1008.1 1006.6 0.0
27/10:00am 32.6 35.7 20.2 48 8.3 NNW 4 6 2 3 1008.6 1007.1 0.0
27/09:30am 31.9 34.6 20.2 50 7.8 SSW 6 17 3 9 1009.0 1007.5 0.0
27/09:00am 30.0 33.5 20.3 56 6.5 SSE 2 6 1 3 1009.3 1007.8 0.0
27/08:30am 28.8 31.9 20.3 60 5.6 S 4 7 2 4 1009.2 1007.7 0.0
27/08:00am 27.7 30.4 20.3 64 4.9 SW 6 9 3 5 1008.5 1007.0 0.0
27/07:30am 26.6 28.7 20.2 68 4.2 SSW 9 11 5 6 1008.3 1006.8 0.0
27/07:00am 26.1 27.8 20.2 70 3.9 SW 11 15 6 8 1008.1 1006.6 0.0
27/06:30am 25.5 27.7 20.5 74 3.3 SW 9 19 5 10 1007.7 1006.1 0.0
27/06:00am 24.9 27.8 20.6 77 2.8 SSW 6 6 3 3 1008.2 1006.7 0.0
27/05:30am 24.7 28.7 20.6 78 2.7 CALM 0 0 0 0 1008.3 1006.8 0.0
27/05:00am 24.8 28.0 20.5 77 2.8 NNE 4 7 2 4 1008.4 1006.9 0.0
27/04:30am 24.7 26.5 20.4 77 2.8 NNE 11 15 6 8 1008.8 1007.3 0.0
27/04:00am 24.6 26.0 20.3 77 2.8 NE 13 19 7 10 1009.1 1007.6 0.0
27/03:30am 25.1 25.6 20.1 74 3.3 NE 17 24 9 13 1009.3 1007.8 0.0
27/03:00am 25.0 25.8 19.8 73 3.4 NE 15 26 8 14 1009.2 1007.7 0.0
27/02:30am 25.5 24.6 19.9 71 3.7 NE 24 37 13 20 1008.9 1007.4 0.0
27/02:13am 27.6 29.0 21.9 71 3.8 NNE 17 54 9 29 1008.4 1006.9 0.0
27/02:00am 28.5 32.7 23.4 74 3.5 NNE 7 13 4 7 1007.8 1006.2 0.0
27/01:30am 28.9 33.2 23.3 72 3.9 NNE 6 9 3 5 1007.9 1006.3 0.0
27/01:00am 29.0 33.2 23.2 71 4.0 NW 6 9 3 5 1007.9 1006.3 0.0
27/12:30am 29.1 33.1 23.1 70 4.1 NNW 7 9 4 5 1007.7 1006.1 0.0
27/12:00am 29.4 33.2 23.4 70 4.2 NW 9 17 5 9 1007.7 1006.1 0.0
 
Date/Time
WST
Temp
°C
App
Temp
°C
Dew
Point
Rel
Hum
%
Delta-T
°C
Wind Press
QNH
hPa
Press
MSL
hPa
Rain
since 9 am
mm
Dir
 
Spd
km/h
Gust
km/h
Spd
kts
Gust
kts
26/11:30pm 29.7 33.6 23.6 69 4.2 NW 9 13 5 7 1007.9 1006.3 0.0
26/11:00pm 29.9 34.2 23.6 69 4.4 NW 7 11 4 6 1008.3 1006.8 0.0
26/10:30pm 30.3 33.8 23.5 67 4.7 WNW 11 17 6 9 1008.6 1007.1 0.0
26/10:00pm 31.1 34.3 22.4 60 6.0 NW 9 15 5 8 1008.5 1007.0 0.0
26/09:30pm 31.5 33.6 21.7 56 6.7 NNW 13 20 7 11 1008.4 1006.9 0.0
26/09:00pm 32.2 34.1 21.4 53 7.3 NNW 13 22 7 12 1007.8 1006.2 0.0
26/08:30pm 32.6 33.3 20.5 49 8.1 NNW 17 30 9 16 1006.9 1005.3 0.0
26/08:00pm 33.1 33.2 19.9 45 8.8 NNW 19 28 10 15 1006.0 1004.5 0.0
26/07:30pm 33.7 34.0 20.5 46 8.9 NNW 19 24 10 13 1005.4 1003.9 0.0
26/07:00pm 34.3 35.3 20.3 44 9.4 NNW 15 24 8 13 1004.9 1003.4 0.0
26/06:30pm 34.3 37.4 20.3 44 9.4 ENE 4 7 2 4 1004.8 1003.3 0.0
26/06:00pm 36.6 37.4 18.2 34 12.1 NNE 11 20 6 11 1004.3 1002.8 0.0
26/05:30pm 37.3 37.8 18.3 32 12.5 N 13 26 7 14 1003.8 1002.3 0.0
26/05:00pm 37.4 36.9 17.9 31 12.9 NNE 17 22 9 12 1004.0 1002.5 0.0
26/04:30pm 37.9 37.0 18.3 31 13.0 NNE 20 30 11 16 1003.9 1002.4 0.0

Other Formats:

Comma delimited format used in spreadsheet applications
http://www.bom.gov.au/fwo/IDW60801/IDW60801.95317.axf

JavaScript Object Notation format (JSON) in row-major order
http://www.bom.gov.au/fwo/IDW60801/IDW60801.95317.json